sensor_id;sensor_type;location;lat;lon;timestamp;P1;durP1;ratioP1;P2;durP2;ratioP2
52838;SDS011;39219;53.678;9.856;2022-12-07T00:02:11;31.10;;;15.25;;
52838;SDS011;39219;53.678;9.856;2022-12-07T00:04:39;32.70;;;15.50;;
52838;SDS011;39219;53.678;9.856;2022-12-07T00:07:05;31.17;;;15.20;;
52838;SDS011;39219;53.678;9.856;2022-12-07T00:09:32;28.73;;;14.90;;
52838;SDS011;39219;53.678;9.856;2022-12-07T00:11:58;31.13;;;15.70;;
52838;SDS011;39219;53.678;9.856;2022-12-07T00:14:25;28.90;;;14.82;;
52838;SDS011;39219;53.678;9.856;2022-12-07T00:16:51;30.48;;;14.93;;
52838;SDS011;39219;53.678;9.856;2022-12-07T00:19:18;34.15;;;15.80;;
52838;SDS011;39219;53.678;9.856;2022-12-07T00:21:46;31.50;;;15.13;;
52838;SDS011;39219;53.678;9.856;2022-12-07T00:24:12;32.50;;;15.13;;
52838;SDS011;39219;53.678;9.856;2022-12-07T00:26:40;33.17;;;15.52;;
52838;SDS011;39219;53.678;9.856;2022-12-07T00:29:09;29.27;;;14.15;;
52838;SDS011;39219;53.678;9.856;2022-12-07T00:31:40;31.33;;;14.82;;
52838;SDS011;39219;53.678;9.856;2022-12-07T00:34:07;31.52;;;14.32;;
52838;SDS011;39219;53.678;9.856;2022-12-07T00:36:38;28.50;;;14.25;;
52838;SDS011;39219;53.678;9.856;2022-12-07T00:39:06;29.23;;;14.40;;
52838;SDS011;39219;53.678;9.856;2022-12-07T00:41:33;30.40;;;13.55;;
52838;SDS011;39219;53.678;9.856;2022-12-07T00:44:00;28.38;;;14.90;;
52838;SDS011;39219;53.678;9.856;2022-12-07T00:46:26;29.17;;;13.75;;
52838;SDS011;39219;53.678;9.856;2022-12-07T00:48:53;30.13;;;14.05;;
52838;SDS011;39219;53.678;9.856;2022-12-07T00:51:21;27.58;;;13.80;;
52838;SDS011;39219;53.678;9.856;2022-12-07T00:53:49;28.55;;;13.95;;
52838;SDS011;39219;53.678;9.856;2022-12-07T00:56:18;28.73;;;13.60;;
52838;SDS011;39219;53.678;9.856;2022-12-07T00:58:49;28.33;;;13.25;;
52838;SDS011;39219;53.678;9.856;2022-12-07T01:01:16;26.60;;;13.25;;
52838;SDS011;39219;53.678;9.856;2022-12-07T01:03:42;28.13;;;12.77;;
52838;SDS011;39219;53.678;9.856;2022-12-07T01:06:09;27.55;;;13.13;;
52838;SDS011;39219;53.678;9.856;2022-12-07T01:08:40;28.35;;;13.02;;
52838;SDS011;39219;53.678;9.856;2022-12-07T01:11:07;28.52;;;12.45;;
52838;SDS011;39219;53.678;9.856;2022-12-07T01:13:37;24.10;;;12.30;;
52838;SDS011;39219;53.678;9.856;2022-12-07T01:16:04;25.70;;;12.00;;
52838;SDS011;39219;53.678;9.856;2022-12-07T01:18:32;27.05;;;12.10;;
52838;SDS011;39219;53.678;9.856;2022-12-07T01:21:00;25.48;;;11.95;;
52838;SDS011;39219;53.678;9.856;2022-12-07T01:23:28;29.48;;;12.38;;
52838;SDS011;39219;53.678;9.856;2022-12-07T01:25:55;26.33;;;11.80;;
52838;SDS011;39219;53.678;9.856;2022-12-07T01:28:22;24.20;;;12.55;;
52838;SDS011;39219;53.678;9.856;2022-12-07T01:30:57;26.85;;;11.32;;
52838;SDS011;39219;53.678;9.856;2022-12-07T01:33:26;23.65;;;11.18;;
52838;SDS011;39219;53.678;9.856;2022-12-07T01:35:53;23.73;;;10.27;;
52838;SDS011;39219;53.678;9.856;2022-12-07T01:38:19;23.45;;;10.30;;
52838;SDS011;39219;53.678;9.856;2022-12-07T01:40:52;20.52;;;9.65;;
52838;SDS011;39219;53.678;9.856;2022-12-07T01:43:20;22.65;;;10.80;;
52838;SDS011;39219;53.678;9.856;2022-12-07T01:45:48;21.65;;;9.68;;
52838;SDS011;39219;53.678;9.856;2022-12-07T01:48:17;20.17;;;9.93;;
52838;SDS011;39219;53.678;9.856;2022-12-07T01:50:48;20.25;;;9.23;;
52838;SDS011;39219;53.678;9.856;2022-12-07T01:53:18;22.33;;;9.38;;
52838;SDS011;39219;53.678;9.856;2022-12-07T01:55:46;21.35;;;9.80;;
52838;SDS011;39219;53.678;9.856;2022-12-07T01:58:15;20.88;;;9.40;;
52838;SDS011;39219;53.678;9.856;2022-12-07T02:00:42;20.38;;;8.82;;
52838;SDS011;39219;53.678;9.856;2022-12-07T02:03:10;19.13;;;9.15;;
52838;SDS011;39219;53.678;9.856;2022-12-07T02:05:42;20.25;;;8.85;;
52838;SDS011;39219;53.678;9.856;2022-12-07T02:08:10;19.33;;;8.38;;
52838;SDS011;39219;53.678;9.856;2022-12-07T02:10:38;19.15;;;8.57;;
52838;SDS011;39219;53.678;9.856;2022-12-07T02:13:06;16.08;;;7.78;;
52838;SDS011;39219;53.678;9.856;2022-12-07T02:15:39;17.52;;;7.43;;
52838;SDS011;39219;53.678;9.856;2022-12-07T02:18:14;18.67;;;7.18;;
52838;SDS011;39219;53.678;9.856;2022-12-07T02:20:49;17.20;;;6.80;;
52838;SDS011;39219;53.678;9.856;2022-12-07T02:29:29;12.95;;;4.80;;
52838;SDS011;39219;53.678;9.856;2022-12-07T02:32:03;12.40;;;5.28;;
52838;SDS011;39219;53.678;9.856;2022-12-07T02:34:36;10.77;;;4.75;;
52838;SDS011;39219;53.678;9.856;2022-12-07T02:37:12;12.68;;;4.50;;
52838;SDS011;39219;53.678;9.856;2022-12-07T02:39:48;10.68;;;3.90;;
52838;SDS011;39219;53.678;9.856;2022-12-07T02:42:21;8.95;;;3.67;;
52838;SDS011;39219;53.678;9.856;2022-12-07T02:44:53;10.52;;;3.70;;
52838;SDS011;39219;53.678;9.856;2022-12-07T02:47:19;9.45;;;3.15;;
52838;SDS011;39219;53.678;9.856;2022-12-07T02:49:49;5.40;;;2.60;;
52838;SDS011;39219;53.678;9.856;2022-12-07T02:52:17;7.38;;;2.78;;
52838;SDS011;39219;53.678;9.856;2022-12-07T02:54:44;4.72;;;2.40;;
52838;SDS011;39219;53.678;9.856;2022-12-07T02:57:17;9.07;;;2.55;;
52838;SDS011;39219;53.678;9.856;2022-12-07T02:59:58;4.45;;;2.45;;
52838;SDS011;39219;53.678;9.856;2022-12-07T03:02:31;4.00;;;2.25;;
52838;SDS011;39219;53.678;9.856;2022-12-07T03:05:18;6.47;;;2.58;;
52838;SDS011;39219;53.678;9.856;2022-12-07T03:08:04;3.65;;;2.03;;
52838;SDS011;39219;53.678;9.856;2022-12-07T03:10:39;5.15;;;2.05;;
52838;SDS011;39219;53.678;9.856;2022-12-07T03:13:15;4.00;;;1.92;;
52838;SDS011;39219;53.678;9.856;2022-12-07T03:15:51;4.95;;;2.10;;
52838;SDS011;39219;53.678;9.856;2022-12-07T03:18:25;4.07;;;1.92;;
52838;SDS011;39219;53.678;9.856;2022-12-07T03:20:57;2.53;;;1.85;;
52838;SDS011;39219;53.678;9.856;2022-12-07T03:23:27;4.22;;;2.10;;
52838;SDS011;39219;53.678;9.856;2022-12-07T03:25:57;5.90;;;2.45;;
52838;SDS011;39219;53.678;9.856;2022-12-07T03:28:27;8.57;;;2.53;;
52838;SDS011;39219;53.678;9.856;2022-12-07T03:31:03;5.75;;;2.30;;
52838;SDS011;39219;53.678;9.856;2022-12-07T03:33:36;7.03;;;2.60;;
52838;SDS011;39219;53.678;9.856;2022-12-07T03:36:09;6.00;;;2.50;;
52838;SDS011;39219;53.678;9.856;2022-12-07T03:38:44;4.05;;;2.33;;
52838;SDS011;39219;53.678;9.856;2022-12-07T03:41:16;5.50;;;2.33;;
52838;SDS011;39219;53.678;9.856;2022-12-07T03:43:48;6.57;;;2.60;;
52838;SDS011;39219;53.678;9.856;2022-12-07T03:46:19;7.03;;;2.50;;
52838;SDS011;39219;53.678;9.856;2022-12-07T03:48:54;8.45;;;2.75;;
52838;SDS011;39219;53.678;9.856;2022-12-07T03:51:26;5.68;;;2.42;;
52838;SDS011;39219;53.678;9.856;2022-12-07T03:54:00;7.93;;;2.65;;
52838;SDS011;39219;53.678;9.856;2022-12-07T03:56:34;6.57;;;3.20;;
52838;SDS011;39219;53.678;9.856;2022-12-07T03:59:02;8.60;;;2.90;;
52838;SDS011;39219;53.678;9.856;2022-12-07T04:01:30;8.07;;;2.80;;
52838;SDS011;39219;53.678;9.856;2022-12-07T04:03:57;6.28;;;3.00;;
52838;SDS011;39219;53.678;9.856;2022-12-07T04:06:24;6.47;;;3.25;;
52838;SDS011;39219;53.678;9.856;2022-12-07T04:08:50;6.57;;;3.10;;
52838;SDS011;39219;53.678;9.856;2022-12-07T04:11:17;11.57;;;3.20;;
52838;SDS011;39219;53.678;9.856;2022-12-07T04:13:43;7.32;;;3.20;;
52838;SDS011;39219;53.678;9.856;2022-12-07T04:16:27;6.82;;;3.40;;
52838;SDS011;39219;53.678;9.856;2022-12-07T04:18:55;9.73;;;3.42;;
52838;SDS011;39219;53.678;9.856;2022-12-07T04:21:22;10.70;;;3.80;;
52838;SDS011;39219;53.678;9.856;2022-12-07T04:23:48;9.43;;;3.50;;
52838;SDS011;39219;53.678;9.856;2022-12-07T04:26:15;8.63;;;3.47;;
52838;SDS011;39219;53.678;9.856;2022-12-07T04:28:41;8.48;;;3.53;;
52838;SDS011;39219;53.678;9.856;2022-12-07T04:31:08;9.38;;;3.67;;
52838;SDS011;39219;53.678;9.856;2022-12-07T04:33:36;8.75;;;3.70;;
52838;SDS011;39219;53.678;9.856;2022-12-07T04:36:03;9.88;;;3.63;;
52838;SDS011;39219;53.678;9.856;2022-12-07T04:38:30;9.52;;;3.60;;
52838;SDS011;39219;53.678;9.856;2022-12-07T04:40:56;10.85;;;3.40;;
52838;SDS011;39219;53.678;9.856;2022-12-07T04:43:23;10.00;;;3.92;;
52838;SDS011;39219;53.678;9.856;2022-12-07T04:45:49;10.65;;;4.28;;
52838;SDS011;39219;53.678;9.856;2022-12-07T04:48:16;9.80;;;4.50;;
52838;SDS011;39219;53.678;9.856;2022-12-07T04:50:44;7.82;;;3.65;;
52838;SDS011;39219;53.678;9.856;2022-12-07T04:53:13;9.05;;;3.97;;
52838;SDS011;39219;53.678;9.856;2022-12-07T04:55:40;9.18;;;3.70;;
52838;SDS011;39219;53.678;9.856;2022-12-07T04:58:06;9.55;;;3.90;;
52838;SDS011;39219;53.678;9.856;2022-12-07T05:00:33;10.23;;;4.45;;
52838;SDS011;39219;53.678;9.856;2022-12-07T05:03:00;11.95;;;4.40;;
52838;SDS011;39219;53.678;9.856;2022-12-07T05:05:26;10.00;;;4.28;;
52838;SDS011;39219;53.678;9.856;2022-12-07T05:07:54;8.63;;;4.18;;
52838;SDS011;39219;53.678;9.856;2022-12-07T05:10:20;9.38;;;4.10;;
52838;SDS011;39219;53.678;9.856;2022-12-07T05:12:47;9.20;;;4.10;;
52838;SDS011;39219;53.678;9.856;2022-12-07T05:15:14;8.02;;;4.07;;
52838;SDS011;39219;53.678;9.856;2022-12-07T05:17:41;9.38;;;3.95;;
52838;SDS011;39219;53.678;9.856;2022-12-07T05:20:08;10.20;;;4.00;;
52838;SDS011;39219;53.678;9.856;2022-12-07T05:22:35;8.35;;;3.92;;
52838;SDS011;39219;53.678;9.856;2022-12-07T05:25:03;7.28;;;3.50;;
52838;SDS011;39219;53.678;9.856;2022-12-07T05:27:30;8.23;;;3.58;;
52838;SDS011;39219;53.678;9.856;2022-12-07T05:29:56;9.73;;;3.92;;
52838;SDS011;39219;53.678;9.856;2022-12-07T05:32:23;8.35;;;4.07;;
52838;SDS011;39219;53.678;9.856;2022-12-07T05:34:49;7.95;;;3.80;;
52838;SDS011;39219;53.678;9.856;2022-12-07T05:37:16;8.15;;;3.70;;
52838;SDS011;39219;53.678;9.856;2022-12-07T05:39:42;9.68;;;3.60;;
52838;SDS011;39219;53.678;9.856;2022-12-07T05:42:11;7.38;;;3.45;;
52838;SDS011;39219;53.678;9.856;2022-12-07T05:44:39;7.60;;;3.83;;
52838;SDS011;39219;53.678;9.856;2022-12-07T05:47:06;8.18;;;4.03;;
52838;SDS011;39219;53.678;9.856;2022-12-07T05:49:33;8.95;;;3.70;;
52838;SDS011;39219;53.678;9.856;2022-12-07T05:52:00;8.73;;;4.00;;
52838;SDS011;39219;53.678;9.856;2022-12-07T05:54:27;11.25;;;4.10;;
52838;SDS011;39219;53.678;9.856;2022-12-07T05:56:54;10.80;;;4.20;;
52838;SDS011;39219;53.678;9.856;2022-12-07T05:59:22;8.70;;;4.10;;
52838;SDS011;39219;53.678;9.856;2022-12-07T06:01:47;8.73;;;4.03;;
52838;SDS011;39219;53.678;9.856;2022-12-07T06:04:14;7.85;;;4.05;;
52838;SDS011;39219;53.678;9.856;2022-12-07T06:06:41;11.32;;;4.07;;
52838;SDS011;39219;53.678;9.856;2022-12-07T06:09:07;7.88;;;3.47;;
52838;SDS011;39219;53.678;9.856;2022-12-07T06:11:34;9.85;;;4.25;;
52838;SDS011;39219;53.678;9.856;2022-12-07T06:14:18;9.63;;;3.90;;
52838;SDS011;39219;53.678;9.856;2022-12-07T06:16:46;9.63;;;4.10;;
52838;SDS011;39219;53.678;9.856;2022-12-07T06:19:12;8.20;;;3.90;;
52838;SDS011;39219;53.678;9.856;2022-12-07T06:21:39;9.10;;;4.30;;
52838;SDS011;39219;53.678;9.856;2022-12-07T06:24:06;10.63;;;4.07;;
52838;SDS011;39219;53.678;9.856;2022-12-07T06:26:33;11.02;;;4.10;;
52838;SDS011;39219;53.678;9.856;2022-12-07T06:28:59;9.88;;;3.90;;
52838;SDS011;39219;53.678;9.856;2022-12-07T06:31:26;8.25;;;3.40;;
52838;SDS011;39219;53.678;9.856;2022-12-07T06:33:57;7.88;;;3.92;;
52838;SDS011;39219;53.678;9.856;2022-12-07T06:36:24;8.43;;;3.88;;
52838;SDS011;39219;53.678;9.856;2022-12-07T06:38:51;9.48;;;4.10;;
52838;SDS011;39219;53.678;9.856;2022-12-07T06:41:17;8.65;;;3.90;;
52838;SDS011;39219;53.678;9.856;2022-12-07T06:43:44;8.73;;;3.58;;
52838;SDS011;39219;53.678;9.856;2022-12-07T06:46:10;8.48;;;3.47;;
52838;SDS011;39219;53.678;9.856;2022-12-07T06:48:37;8.63;;;3.63;;
52838;SDS011;39219;53.678;9.856;2022-12-07T06:51:05;7.85;;;3.33;;
52838;SDS011;39219;53.678;9.856;2022-12-07T06:53:32;7.88;;;3.45;;
52838;SDS011;39219;53.678;9.856;2022-12-07T06:55:58;7.10;;;3.30;;
52838;SDS011;39219;53.678;9.856;2022-12-07T06:58:25;8.80;;;3.25;;
52838;SDS011;39219;53.678;9.856;2022-12-07T07:00:51;11.40;;;3.88;;
52838;SDS011;39219;53.678;9.856;2022-12-07T07:03:18;8.65;;;3.45;;
52838;SDS011;39219;53.678;9.856;2022-12-07T07:05:45;9.23;;;3.17;;
52838;SDS011;39219;53.678;9.856;2022-12-07T07:08:13;7.25;;;3.10;;
52838;SDS011;39219;53.678;9.856;2022-12-07T07:10:40;10.90;;;3.30;;
52838;SDS011;39219;53.678;9.856;2022-12-07T07:13:07;8.07;;;3.03;;
52838;SDS011;39219;53.678;9.856;2022-12-07T07:15:34;6.00;;;3.17;;
52838;SDS011;39219;53.678;9.856;2022-12-07T07:18:01;11.85;;;3.15;;
52838;SDS011;39219;53.678;9.856;2022-12-07T07:20:28;6.57;;;3.20;;
52838;SDS011;39219;53.678;9.856;2022-12-07T07:22:55;5.78;;;2.63;;
52838;SDS011;39219;53.678;9.856;2022-12-07T07:25:23;7.95;;;3.00;;
52838;SDS011;39219;53.678;9.856;2022-12-07T07:27:50;7.57;;;3.20;;
52838;SDS011;39219;53.678;9.856;2022-12-07T07:30:17;8.25;;;2.95;;
52838;SDS011;39219;53.678;9.856;2022-12-07T07:32:43;8.75;;;3.05;;
52838;SDS011;39219;53.678;9.856;2022-12-07T07:35:10;8.40;;;2.95;;
52838;SDS011;39219;53.678;9.856;2022-12-07T07:37:37;6.38;;;2.80;;
52838;SDS011;39219;53.678;9.856;2022-12-07T07:40:04;7.40;;;2.83;;
52838;SDS011;39219;53.678;9.856;2022-12-07T07:42:33;7.78;;;2.75;;
52838;SDS011;39219;53.678;9.856;2022-12-07T07:44:59;8.50;;;2.90;;
52838;SDS011;39219;53.678;9.856;2022-12-07T07:47:26;8.73;;;2.90;;
52838;SDS011;39219;53.678;9.856;2022-12-07T07:49:54;5.25;;;2.65;;
52838;SDS011;39219;53.678;9.856;2022-12-07T07:52:20;7.05;;;3.00;;
52838;SDS011;39219;53.678;9.856;2022-12-07T07:54:47;6.57;;;2.72;;
52838;SDS011;39219;53.678;9.856;2022-12-07T07:57:13;6.40;;;2.92;;
52838;SDS011;39219;53.678;9.856;2022-12-07T07:59:41;9.52;;;3.08;;
52838;SDS011;39219;53.678;9.856;2022-12-07T08:02:08;7.05;;;2.67;;
52838;SDS011;39219;53.678;9.856;2022-12-07T08:04:39;8.70;;;3.00;;
52838;SDS011;39219;53.678;9.856;2022-12-07T08:07:05;7.25;;;2.60;;
52838;SDS011;39219;53.678;9.856;2022-12-07T08:09:32;6.10;;;2.25;;
52838;SDS011;39219;53.678;9.856;2022-12-07T08:11:58;5.68;;;2.25;;
52838;SDS011;39219;53.678;9.856;2022-12-07T08:14:25;4.10;;;2.10;;
52838;SDS011;39219;53.678;9.856;2022-12-07T08:16:55;7.15;;;2.13;;
52838;SDS011;39219;53.678;9.856;2022-12-07T08:19:21;8.90;;;2.20;;
52838;SDS011;39219;53.678;9.856;2022-12-07T08:21:48;5.35;;;2.00;;
52838;SDS011;39219;53.678;9.856;2022-12-07T08:24:14;5.72;;;2.05;;
52838;SDS011;39219;53.678;9.856;2022-12-07T08:26:41;5.30;;;2.20;;
52838;SDS011;39219;53.678;9.856;2022-12-07T08:29:08;9.20;;;2.63;;
52838;SDS011;39219;53.678;9.856;2022-12-07T08:31:35;7.28;;;2.22;;
52838;SDS011;39219;53.678;9.856;2022-12-07T08:34:03;10.48;;;2.30;;
52838;SDS011;39219;53.678;9.856;2022-12-07T08:36:29;9.35;;;2.60;;
52838;SDS011;39219;53.678;9.856;2022-12-07T08:38:56;9.20;;;2.10;;
52838;SDS011;39219;53.678;9.856;2022-12-07T08:41:22;8.35;;;2.40;;
52838;SDS011;39219;53.678;9.856;2022-12-07T08:43:49;7.13;;;2.20;;
52838;SDS011;39219;53.678;9.856;2022-12-07T08:46:17;7.40;;;1.90;;
52838;SDS011;39219;53.678;9.856;2022-12-07T08:48:48;4.72;;;1.85;;
52838;SDS011;39219;53.678;9.856;2022-12-07T08:51:20;9.10;;;2.28;;
52838;SDS011;39219;53.678;9.856;2022-12-07T08:53:47;6.13;;;2.25;;
52838;SDS011;39219;53.678;9.856;2022-12-07T08:56:15;6.40;;;1.85;;
52838;SDS011;39219;53.678;9.856;2022-12-07T08:58:41;8.18;;;2.03;;
52838;SDS011;39219;53.678;9.856;2022-12-07T09:01:09;7.40;;;2.42;;
52838;SDS011;39219;53.678;9.856;2022-12-07T09:03:35;5.28;;;2.08;;
52838;SDS011;39219;53.678;9.856;2022-12-07T09:06:02;7.63;;;2.30;;
52838;SDS011;39219;53.678;9.856;2022-12-07T09:08:31;6.07;;;2.10;;
52838;SDS011;39219;53.678;9.856;2022-12-07T09:11:00;9.27;;;2.42;;
52838;SDS011;39219;53.678;9.856;2022-12-07T09:13:27;4.68;;;2.30;;
52838;SDS011;39219;53.678;9.856;2022-12-07T09:15:53;5.72;;;2.35;;
52838;SDS011;39219;53.678;9.856;2022-12-07T09:18:20;10.65;;;2.53;;
52838;SDS011;39219;53.678;9.856;2022-12-07T09:20:46;8.63;;;2.30;;
52838;SDS011;39219;53.678;9.856;2022-12-07T09:23:13;7.63;;;2.50;;
52838;SDS011;39219;53.678;9.856;2022-12-07T09:25:40;6.75;;;2.40;;
52838;SDS011;39219;53.678;9.856;2022-12-07T09:28:07;6.03;;;2.33;;
52838;SDS011;39219;53.678;9.856;2022-12-07T09:30:34;10.90;;;2.33;;
52838;SDS011;39219;53.678;9.856;2022-12-07T09:33:01;8.27;;;2.60;;
52838;SDS011;39219;53.678;9.856;2022-12-07T09:35:28;7.13;;;2.20;;
52838;SDS011;39219;53.678;9.856;2022-12-07T09:37:54;9.85;;;2.90;;
52838;SDS011;39219;53.678;9.856;2022-12-07T09:40:21;8.43;;;2.30;;
52838;SDS011;39219;53.678;9.856;2022-12-07T09:42:51;5.70;;;2.40;;
52838;SDS011;39219;53.678;9.856;2022-12-07T09:45:21;9.57;;;2.63;;
52838;SDS011;39219;53.678;9.856;2022-12-07T09:47:49;7.22;;;2.60;;
52838;SDS011;39219;53.678;9.856;2022-12-07T09:50:16;5.82;;;2.17;;
52838;SDS011;39219;53.678;9.856;2022-12-07T09:52:47;8.43;;;2.30;;
52838;SDS011;39219;53.678;9.856;2022-12-07T09:55:15;8.27;;;3.00;;
52838;SDS011;39219;53.678;9.856;2022-12-07T09:57:48;5.70;;;2.30;;
52838;SDS011;39219;53.678;9.856;2022-12-07T10:00:18;8.15;;;2.38;;
52838;SDS011;39219;53.678;9.856;2022-12-07T10:02:47;9.35;;;2.30;;
52838;SDS011;39219;53.678;9.856;2022-12-07T10:05:17;8.23;;;2.10;;
52838;SDS011;39219;53.678;9.856;2022-12-07T10:07:47;8.10;;;1.88;;
52838;SDS011;39219;53.678;9.856;2022-12-07T10:10:15;6.97;;;2.10;;
52838;SDS011;39219;53.678;9.856;2022-12-07T10:12:54;8.05;;;1.92;;
52838;SDS011;39219;53.678;9.856;2022-12-07T10:15:23;6.07;;;1.90;;
52838;SDS011;39219;53.678;9.856;2022-12-07T10:18:15;5.93;;;1.73;;
52838;SDS011;39219;53.678;9.856;2022-12-07T10:20:45;6.57;;;1.92;;
52838;SDS011;39219;53.678;9.856;2022-12-07T10:23:13;6.53;;;1.77;;
52838;SDS011;39219;53.678;9.856;2022-12-07T10:25:41;4.43;;;1.50;;
52838;SDS011;39219;53.678;9.856;2022-12-07T10:28:12;5.38;;;1.95;;
52838;SDS011;39219;53.678;9.856;2022-12-07T10:30:49;5.93;;;1.52;;
52838;SDS011;39219;53.678;9.856;2022-12-07T10:33:30;9.00;;;2.00;;
52838;SDS011;39219;53.678;9.856;2022-12-07T10:36:00;6.40;;;1.63;;
52838;SDS011;39219;53.678;9.856;2022-12-07T10:38:43;8.80;;;1.70;;
52838;SDS011;39219;53.678;9.856;2022-12-07T10:41:10;9.90;;;1.75;;
52838;SDS011;39219;53.678;9.856;2022-12-07T10:43:37;6.38;;;1.50;;
52838;SDS011;39219;53.678;9.856;2022-12-07T10:46:20;6.80;;;1.48;;
52838;SDS011;39219;53.678;9.856;2022-12-07T10:49:04;6.93;;;1.65;;
52838;SDS011;39219;53.678;9.856;2022-12-07T10:51:48;6.05;;;1.60;;
52838;SDS011;39219;53.678;9.856;2022-12-07T10:59:53;7.28;;;1.52;;
52838;SDS011;39219;53.678;9.856;2022-12-07T11:02:33;5.60;;;1.50;;
52838;SDS011;39219;53.678;9.856;2022-12-07T11:05:16;8.05;;;1.70;;
52838;SDS011;39219;53.678;9.856;2022-12-07T11:07:52;6.63;;;1.80;;
52838;SDS011;39219;53.678;9.856;2022-12-07T11:10:31;9.48;;;1.80;;
52838;SDS011;39219;53.678;9.856;2022-12-07T11:13:17;6.68;;;1.70;;
52838;SDS011;39219;53.678;9.856;2022-12-07T11:16:02;6.03;;;1.73;;
52838;SDS011;39219;53.678;9.856;2022-12-07T11:18:42;7.38;;;1.80;;
52838;SDS011;39219;53.678;9.856;2022-12-07T11:21:17;6.03;;;1.80;;
52838;SDS011;39219;53.678;9.856;2022-12-07T11:23:52;8.60;;;1.83;;
52838;SDS011;39219;53.678;9.856;2022-12-07T11:26:30;6.28;;;1.42;;
52838;SDS011;39219;53.678;9.856;2022-12-07T11:29:18;7.30;;;1.70;;
52838;SDS011;39219;53.678;9.856;2022-12-07T11:31:56;5.97;;;1.63;;
52838;SDS011;39219;53.678;9.856;2022-12-07T11:34:35;7.57;;;1.60;;
52838;SDS011;39219;53.678;9.856;2022-12-07T11:37:08;5.70;;;1.58;;
52838;SDS011;39219;53.678;9.856;2022-12-07T11:39:39;6.82;;;1.50;;
52838;SDS011;39219;53.678;9.856;2022-12-07T11:42:12;9.05;;;2.10;;
52838;SDS011;39219;53.678;9.856;2022-12-07T11:44:45;5.63;;;1.77;;
52838;SDS011;39219;53.678;9.856;2022-12-07T11:47:20;6.32;;;1.85;;
52838;SDS011;39219;53.678;9.856;2022-12-07T11:49:56;6.05;;;1.30;;
52838;SDS011;39219;53.678;9.856;2022-12-07T11:52:30;7.70;;;1.77;;
52838;SDS011;39219;53.678;9.856;2022-12-07T11:55:14;5.45;;;1.55;;
52838;SDS011;39219;53.678;9.856;2022-12-07T11:57:49;5.45;;;1.83;;
52838;SDS011;39219;53.678;9.856;2022-12-07T12:00:19;10.68;;;1.85;;
52838;SDS011;39219;53.678;9.856;2022-12-07T12:02:48;9.48;;;1.58;;
52838;SDS011;39219;53.678;9.856;2022-12-07T12:05:24;8.35;;;1.75;;
52838;SDS011;39219;53.678;9.856;2022-12-07T12:07:52;8.55;;;2.10;;
52838;SDS011;39219;53.678;9.856;2022-12-07T12:10:30;9.98;;;2.53;;
52838;SDS011;39219;53.678;9.856;2022-12-07T12:13:08;6.85;;;1.95;;
52838;SDS011;39219;53.678;9.856;2022-12-07T12:15:52;7.45;;;1.73;;
52838;SDS011;39219;53.678;9.856;2022-12-07T12:18:38;10.00;;;1.90;;
52838;SDS011;39219;53.678;9.856;2022-12-07T12:21:20;8.85;;;1.52;;
52838;SDS011;39219;53.678;9.856;2022-12-07T12:23:54;8.30;;;1.73;;
52838;SDS011;39219;53.678;9.856;2022-12-07T12:26:25;8.30;;;1.88;;
52838;SDS011;39219;53.678;9.856;2022-12-07T12:28:54;9.90;;;1.58;;
52838;SDS011;39219;53.678;9.856;2022-12-07T12:31:31;7.43;;;1.42;;
52838;SDS011;39219;53.678;9.856;2022-12-07T12:34:02;5.10;;;1.60;;
52838;SDS011;39219;53.678;9.856;2022-12-07T12:36:44;6.25;;;1.48;;
52838;SDS011;39219;53.678;9.856;2022-12-07T12:39:12;4.93;;;1.33;;
52838;SDS011;39219;53.678;9.856;2022-12-07T12:47:54;4.75;;;1.02;;
52838;SDS011;39219;53.678;9.856;2022-12-07T12:50:23;9.10;;;1.48;;
52838;SDS011;39219;53.678;9.856;2022-12-07T12:52:56;4.10;;;0.95;;
52838;SDS011;39219;53.678;9.856;2022-12-07T12:58:41;9.80;;;1.48;;
52838;SDS011;39219;53.678;9.856;2022-12-07T13:07:46;6.07;;;1.60;;
52838;SDS011;39219;53.678;9.856;2022-12-07T13:13:31;7.22;;;1.67;;
52838;SDS011;39219;53.678;9.856;2022-12-07T13:18:59;5.07;;;1.10;;
52838;SDS011;39219;53.678;9.856;2022-12-07T13:21:41;2.15;;;0.98;;
52838;SDS011;39219;53.678;9.856;2022-12-07T13:24:10;4.80;;;1.20;;
52838;SDS011;39219;53.678;9.856;2022-12-07T13:26:39;6.45;;;1.30;;
52838;SDS011;39219;53.678;9.856;2022-12-07T13:29:11;5.57;;;1.15;;
52838;SDS011;39219;53.678;9.856;2022-12-07T13:31:40;8.93;;;1.58;;
52838;SDS011;39219;53.678;9.856;2022-12-07T13:36:54;6.80;;;1.52;;
52838;SDS011;39219;53.678;9.856;2022-12-07T13:39:22;5.85;;;0.98;;
52838;SDS011;39219;53.678;9.856;2022-12-07T13:41:50;4.88;;;1.15;;
52838;SDS011;39219;53.678;9.856;2022-12-07T13:44:20;3.80;;;1.10;;
52838;SDS011;39219;53.678;9.856;2022-12-07T13:46:49;4.18;;;1.10;;
52838;SDS011;39219;53.678;9.856;2022-12-07T13:49:22;3.67;;;1.00;;
52838;SDS011;39219;53.678;9.856;2022-12-07T13:51:49;2.22;;;0.88;;
52838;SDS011;39219;53.678;9.856;2022-12-07T13:54:16;5.18;;;0.98;;
52838;SDS011;39219;53.678;9.856;2022-12-07T13:56:44;4.07;;;0.80;;
52838;SDS011;39219;53.678;9.856;2022-12-07T13:59:16;5.82;;;1.27;;
52838;SDS011;39219;53.678;9.856;2022-12-07T14:01:46;4.40;;;1.48;;
52838;SDS011;39219;53.678;9.856;2022-12-07T14:04:31;10.00;;;1.60;;
52838;SDS011;39219;53.678;9.856;2022-12-07T14:06:59;7.15;;;1.48;;
52838;SDS011;39219;53.678;9.856;2022-12-07T14:09:27;5.07;;;1.23;;
52838;SDS011;39219;53.678;9.856;2022-12-07T14:11:54;5.85;;;1.35;;
52838;SDS011;39219;53.678;9.856;2022-12-07T14:14:23;3.47;;;1.42;;
52838;SDS011;39219;53.678;9.856;2022-12-07T14:16:58;6.38;;;1.70;;
52838;SDS011;39219;53.678;9.856;2022-12-07T14:19:41;5.18;;;1.75;;
52838;SDS011;39219;53.678;9.856;2022-12-07T14:22:17;5.70;;;1.90;;
52838;SDS011;39219;53.678;9.856;2022-12-07T14:24:47;5.18;;;1.60;;
52838;SDS011;39219;53.678;9.856;2022-12-07T14:27:16;4.32;;;1.23;;
52838;SDS011;39219;53.678;9.856;2022-12-07T14:29:44;4.55;;;1.20;;
52838;SDS011;39219;53.678;9.856;2022-12-07T14:32:20;6.30;;;1.17;;
52838;SDS011;39219;53.678;9.856;2022-12-07T14:35:00;6.22;;;1.48;;
52838;SDS011;39219;53.678;9.856;2022-12-07T14:37:29;5.93;;;1.80;;
52838;SDS011;39219;53.678;9.856;2022-12-07T14:39:56;4.85;;;1.50;;
52838;SDS011;39219;53.678;9.856;2022-12-07T14:42:23;6.68;;;2.08;;
52838;SDS011;39219;53.678;9.856;2022-12-07T14:44:53;4.43;;;1.70;;
52838;SDS011;39219;53.678;9.856;2022-12-07T14:47:21;4.15;;;1.45;;
52838;SDS011;39219;53.678;9.856;2022-12-07T14:49:48;5.32;;;1.63;;
52838;SDS011;39219;53.678;9.856;2022-12-07T14:52:15;6.45;;;1.80;;
52838;SDS011;39219;53.678;9.856;2022-12-07T14:54:44;6.50;;;2.47;;
52838;SDS011;39219;53.678;9.856;2022-12-07T14:57:11;6.72;;;1.75;;
52838;SDS011;39219;53.678;9.856;2022-12-07T14:59:38;6.50;;;1.88;;
52838;SDS011;39219;53.678;9.856;2022-12-07T15:02:04;6.75;;;1.90;;
52838;SDS011;39219;53.678;9.856;2022-12-07T15:04:33;5.60;;;1.85;;
52838;SDS011;39219;53.678;9.856;2022-12-07T15:07:00;5.93;;;2.30;;
52838;SDS011;39219;53.678;9.856;2022-12-07T15:09:28;5.05;;;2.20;;
52838;SDS011;39219;53.678;9.856;2022-12-07T15:11:54;5.70;;;2.30;;
52838;SDS011;39219;53.678;9.856;2022-12-07T15:14:21;5.47;;;2.30;;
52838;SDS011;39219;53.678;9.856;2022-12-07T15:16:47;7.32;;;1.77;;
52838;SDS011;39219;53.678;9.856;2022-12-07T15:19:14;6.13;;;2.35;;
52838;SDS011;39219;53.678;9.856;2022-12-07T15:21:44;8.07;;;3.03;;
52838;SDS011;39219;53.678;9.856;2022-12-07T15:24:11;11.88;;;3.35;;
52838;SDS011;39219;53.678;9.856;2022-12-07T15:26:38;8.63;;;2.58;;
52838;SDS011;39219;53.678;9.856;2022-12-07T15:29:06;9.93;;;2.20;;
52838;SDS011;39219;53.678;9.856;2022-12-07T15:31:33;5.43;;;1.75;;
52838;SDS011;39219;53.678;9.856;2022-12-07T15:34:00;3.97;;;1.55;;
52838;SDS011;39219;53.678;9.856;2022-12-07T15:36:28;6.93;;;1.58;;